Time;durP1;ratioP1;P1;durP2;ratioP2;P2;SDS_P1;SDS_P2;PMS_P1;PMS_P2;Temp;Humidity;BMP_temperature;BMP_pressure;BME280_temperature;BME280_humidity;BME280_pressure;Samples;Min_cycle;Max_cycle;Signal;HPM_P1;HPM_P2
2023/08/13 00:01:50;;;;;;;15.95;6.75;;;16.50;99.90;;;;;;5073966;28;20043;-76
2023/08/13 00:04:16;;;;;;;21.73;7.15;;;16.50;99.90;;;;;;5069977;28;20028;-76
2023/08/13 00:06:41;;;;;;;19.10;7.40;;;16.50;99.90;;;;;;5073623;28;20021;-76
2023/08/13 00:09:07;;;;;;;16.98;6.88;;;16.50;99.90;;;;;;5071886;28;20021;-74
2023/08/13 00:11:32;;;;;;;18.17;7.18;;;16.40;99.90;;;;;;5073390;28;20678;-75
2023/08/13 00:13:58;;;;;;;18.67;6.90;;;16.40;99.90;;;;;;5072775;28;20029;-75
2023/08/13 00:16:24;;;;;;;18.05;6.95;;;16.40;99.90;;;;;;5073751;28;20017;-76
2023/08/13 00:18:49;;;;;;;21.30;8.35;;;16.40;99.90;;;;;;5071779;28;20040;-76
2023/08/13 00:21:15;;;;;;;22.23;8.43;;;16.40;99.90;;;;;;5073685;28;20021;-77
2023/08/13 00:23:41;;;;;;;19.10;7.63;;;16.30;99.90;;;;;;5073317;28;20040;-75
2023/08/13 00:26:07;;;;;;;19.75;7.55;;;16.30;99.90;;;;;;5073522;28;20497;-76
2023/08/13 00:28:32;;;;;;;16.55;7.88;;;16.30;99.90;;;;;;5075301;28;20032;-75
2023/08/13 00:30:59;;;;;;;17.95;7.28;;;16.30;99.90;;;;;;5077240;28;20410;-76
2023/08/13 00:33:24;;;;;;;19.70;7.82;;;16.20;99.90;;;;;;5074237;28;20017;-75
2023/08/13 00:35:53;;;;;;;17.00;7.43;;;16.20;99.90;;;;;;5076035;28;20032;-75
2023/08/13 00:38:19;;;;;;;16.52;7.70;;;16.20;99.90;;;;;;5071114;28;20045;-76
2023/08/13 00:40:50;;;;;;;17.65;7.10;;;16.10;99.90;;;;;;5069987;28;20024;-76
2023/08/13 00:43:16;;;;;;;16.20;7.13;;;16.10;99.90;;;;;;5073791;28;20028;-74
2023/08/13 00:45:42;;;;;;;17.58;7.18;;;16.10;99.90;;;;;;5075308;28;20039;-74
2023/08/13 00:48:09;;;;;;;15.75;7.47;;;16.10;99.90;;;;;;5075977;28;20031;-75
2023/08/13 00:50:35;;;;;;;14.93;6.70;;;16.10;99.90;;;;;;5075365;28;20025;-75
2023/08/13 00:53:05;;;;;;;17.00;7.78;;;16.10;99.90;;;;;;5074710;28;20090;-75
2023/08/13 00:55:32;;;;;;;18.88;7.78;;;16.20;99.90;;;;;;5077094;28;20027;-76
2023/08/13 00:57:58;;;;;;;13.52;7.18;;;16.20;99.90;;;;;;5075546;28;20037;-75
2023/08/13 01:00:26;;;;;;;16.58;7.15;;;16.20;99.90;;;;;;5074570;28;20044;-75
2023/08/13 01:02:52;;;;;;;17.20;7.60;;;16.20;99.90;;;;;;5075064;28;20039;-75
2023/08/13 01:05:19;;;;;;;19.20;7.70;;;16.20;99.90;;;;;;5073669;28;20028;-74
2023/08/13 01:07:55;;;;;;;21.50;8.40;;;16.20;99.90;;;;;;5075447;28;20092;-76
2023/08/13 01:10:34;;;;;;;21.00;8.25;;;16.20;99.90;;;;;;5076301;28;20029;-76
2023/08/13 01:13:05;;;;;;;22.02;8.27;;;16.20;99.90;;;;;;5075113;28;20389;-73
2023/08/13 01:15:36;;;;;;;20.25;8.95;;;16.20;99.90;;;;;;5075347;28;20051;-74
2023/08/13 01:18:02;;;;;;;20.75;8.82;;;16.20;99.90;;;;;;5072650;28;20131;-73
2023/08/13 01:20:32;;;;;;;17.38;8.27;;;16.20;99.90;;;;;;5072635;28;20099;-74
2023/08/13 01:22:58;;;;;;;21.40;8.85;;;16.20;99.90;;;;;;5073936;28;20033;-74
2023/08/13 01:25:28;;;;;;;21.30;8.23;;;16.20;99.90;;;;;;5073299;28;20021;-76
2023/08/13 01:28:15;;;;;;;17.90;8.05;;;16.20;99.90;;;;;;5065689;28;20029;-74
2023/08/13 01:31:12;;;;;;;18.80;8.68;;;16.30;99.90;;;;;;5066058;28;20033;-74
2023/08/13 01:33:41;;;;;;;18.50;8.70;;;16.30;99.90;;;;;;5064337;28;20133;-74
2023/08/13 01:36:07;;;;;;;16.75;8.20;;;16.20;99.90;;;;;;5065609;28;20249;-75
2023/08/13 01:38:33;;;;;;;24.85;8.50;;;16.20;99.90;;;;;;5064359;28;20045;-73
2023/08/13 01:41:03;;;;;;;15.20;7.97;;;16.20;99.90;;;;;;5065239;28;20025;-75
2023/08/13 01:43:35;;;;;;;20.80;9.48;;;16.20;99.90;;;;;;5065848;28;20051;-75
2023/08/13 01:46:01;;;;;;;25.95;13.30;;;16.20;99.90;;;;;;5065630;28;20025;-72
2023/08/13 01:48:28;;;;;;;25.35;14.23;;;16.20;99.90;;;;;;5068180;28;20028;-74
2023/08/13 01:50:53;;;;;;;27.42;13.68;;;16.20;99.90;;;;;;5064752;28;20096;-74
2023/08/13 01:53:28;;;;;;;26.92;13.70;;;16.30;99.90;;;;;;5065652;28;20056;-75
2023/08/13 01:55:53;;;;;;;22.48;13.52;;;16.30;99.90;;;;;;5064462;28;20035;-73
2023/08/13 01:58:19;;;;;;;24.65;13.60;;;16.20;99.90;;;;;;5064908;28;20041;-74
2023/08/13 02:00:45;;;;;;;25.65;13.70;;;16.20;99.90;;;;;;5067359;28;20077;-75
2023/08/13 02:03:10;;;;;;;23.88;11.70;;;16.20;99.90;;;;;;5077998;28;20047;-74
2023/08/13 02:05:36;;;;;;;18.33;9.43;;;16.20;99.90;;;;;;5065759;28;20036;-74
2023/08/13 02:08:02;;;;;;;18.65;10.70;;;16.20;99.90;;;;;;5064260;28;20101;-74
2023/08/13 02:10:27;;;;;;;19.52;10.40;;;16.20;99.90;;;;;;5065268;28;20074;-74
2023/08/13 02:12:53;;;;;;;16.73;9.68;;;16.20;99.90;;;;;;5064357;28;20066;-75
2023/08/13 02:15:25;;;;;;;21.67;9.95;;;16.20;99.90;;;;;;5065479;28;20037;-75
2023/08/13 02:17:51;;;;;;;18.17;9.05;;;16.20;99.90;;;;;;5065407;28;20033;-74
2023/08/13 02:20:17;;;;;;;21.73;8.90;;;16.10;99.90;;;;;;5065541;28;20021;-74
2023/08/13 02:22:42;;;;;;;21.08;8.75;;;16.20;99.90;;;;;;5065214;28;20025;-75
2023/08/13 02:25:08;;;;;;;17.17;8.35;;;16.20;99.90;;;;;;5073895;28;20029;-74
2023/08/13 02:27:34;;;;;;;20.88;8.45;;;16.20;99.90;;;;;;5084046;28;20044;-74
2023/08/13 02:30:00;;;;;;;22.15;8.18;;;16.20;99.90;;;;;;5084933;28;20078;-73
2023/08/13 02:32:25;;;;;;;18.75;8.05;;;16.20;99.90;;;;;;5076023;28;20417;-73
2023/08/13 02:34:51;;;;;;;19.92;8.00;;;16.20;99.90;;;;;;5065318;28;20025;-75
2023/08/13 02:37:17;;;;;;;17.73;7.68;;;16.20;99.90;;;;;;5064882;28;20028;-75
2023/08/13 02:39:42;;;;;;;22.48;8.63;;;16.20;99.90;;;;;;5065218;28;20029;-74
2023/08/13 02:42:08;;;;;;;27.65;10.25;;;16.20;99.90;;;;;;5064943;28;20032;-75
2023/08/13 02:44:33;;;;;;;19.92;9.30;;;16.20;99.90;;;;;;5064917;28;20025;-75
2023/08/13 02:46:59;;;;;;;18.02;8.68;;;16.20;99.90;;;;;;5064384;28;20473;-75
2023/08/13 02:49:25;;;;;;;24.48;8.63;;;16.20;99.90;;;;;;5064775;28;20029;-76
2023/08/13 02:51:50;;;;;;;24.10;8.40;;;16.20;99.90;;;;;;5064557;28;20056;-75
2023/08/13 02:54:16;;;;;;;21.80;8.38;;;16.10;99.90;;;;;;5064798;28;20051;-74
2023/08/13 02:56:44;;;;;;;22.10;8.90;;;16.20;99.90;;;;;;5064819;28;20036;-75
2023/08/13 02:59:10;;;;;;;21.63;9.02;;;16.20;99.90;;;;;;5064680;28;20063;-74
2023/08/13 03:01:38;;;;;;;22.00;9.15;;;16.20;99.90;;;;;;5063298;28;20025;-74
2023/08/13 03:04:04;;;;;;;23.13;9.27;;;16.20;99.90;;;;;;5064546;28;20024;-75
2023/08/13 03:06:30;;;;;;;24.77;9.10;;;16.20;99.90;;;;;;5064773;28;20025;-73
2023/08/13 03:08:55;;;;;;;20.67;8.57;;;16.20;99.90;;;;;;5064698;28;20032;-74
2023/08/13 03:11:21;;;;;;;29.92;9.10;;;16.10;99.90;;;;;;5071431;28;20028;-75
2023/08/13 03:13:47;;;;;;;21.75;7.50;;;16.20;99.90;;;;;;5075221;28;20043;-74
2023/08/13 03:16:13;;;;;;;21.70;8.68;;;16.10;99.90;;;;;;5069203;28;20029;-74
2023/08/13 03:18:40;;;;;;;23.30;9.15;;;16.20;99.90;;;;;;5070193;28;20044;-76
2023/08/13 03:21:05;;;;;;;20.58;8.98;;;16.10;99.90;;;;;;5075087;28;20430;-76
2023/08/13 03:23:32;;;;;;;25.00;8.50;;;16.10;99.90;;;;;;5063327;28;20028;-75
2023/08/13 03:25:58;;;;;;;23.42;8.77;;;16.10;99.90;;;;;;5063003;28;20021;-74
2023/08/13 03:28:24;;;;;;;23.95;9.18;;;16.10;99.90;;;;;;5063134;28;20120;-74
2023/08/13 03:30:50;;;;;;;23.58;8.95;;;16.10;99.90;;;;;;5064529;28;20025;-76
2023/08/13 03:33:15;;;;;;;21.48;8.25;;;16.10;99.90;;;;;;5083789;28;20024;-75
2023/08/13 03:35:42;;;;;;;18.70;8.52;;;16.10;99.90;;;;;;5084629;28;20029;-74
2023/08/13 03:38:08;;;;;;;22.42;8.93;;;16.20;99.90;;;;;;5083266;28;20044;-74
2023/08/13 03:40:37;;;;;;;19.25;8.65;;;16.20;99.90;;;;;;5083017;28;20029;-74
2023/08/13 03:43:03;;;;;;;28.15;9.13;;;16.20;99.90;;;;;;5083054;28;20092;-75
2023/08/13 03:45:29;;;;;;;24.42;8.48;;;16.20;99.90;;;;;;5084421;28;20032;-75
2023/08/13 03:47:55;;;;;;;21.00;8.40;;;16.20;99.90;;;;;;5084299;28;20021;-75
2023/08/13 03:50:21;;;;;;;31.52;8.85;;;16.20;99.90;;;;;;5084162;28;20025;-75
2023/08/13 03:52:47;;;;;;;22.75;7.32;;;16.20;99.90;;;;;;5084117;28;20101;-74
2023/08/13 03:55:12;;;;;;;20.70;8.00;;;16.20;99.90;;;;;;5070896;28;20052;-76
2023/08/13 03:57:38;;;;;;;22.42;7.80;;;16.20;99.90;;;;;;5082367;28;20052;-75
2023/08/13 04:00:05;;;;;;;21.55;7.43;;;16.20;99.90;;;;;;5066361;28;20029;-73
2023/08/13 04:02:33;;;;;;;18.58;6.80;;;16.20;99.90;;;;;;5067811;28;20078;-73
2023/08/13 04:04:58;;;;;;;17.88;6.55;;;16.20;99.90;;;;;;5068010;28;20060;-77
2023/08/13 04:07:24;;;;;;;18.80;6.97;;;16.20;99.90;;;;;;5068211;28;20029;-74
2023/08/13 04:09:50;;;;;;;20.65;6.82;;;16.20;99.90;;;;;;5067968;28;20025;-75
2023/08/13 04:12:15;;;;;;;18.55;6.15;;;16.20;99.90;;;;;;5070991;28;20032;-74
2023/08/13 04:14:41;;;;;;;17.50;7.03;;;16.20;99.90;;;;;;5081022;28;20037;-74
2023/08/13 04:17:06;;;;;;;17.67;6.85;;;16.20;99.90;;;;;;5077656;28;20037;-74
2023/08/13 04:19:32;;;;;;;11.13;5.80;;;16.20;99.90;;;;;;5077953;28;20041;-75
2023/08/13 04:21:58;;;;;;;18.20;6.70;;;16.20;99.90;;;;;;5074276;28;20052;-74
2023/08/13 04:24:23;;;;;;;19.38;6.72;;;16.20;99.90;;;;;;5072468;28;20029;-76
2023/08/13 04:26:49;;;;;;;16.70;6.53;;;16.20;99.90;;;;;;5077222;28;20084;-73
2023/08/13 04:29:14;;;;;;;14.90;6.72;;;16.20;99.90;;;;;;5066102;28;20098;-74
2023/08/13 04:31:40;;;;;;;17.38;6.75;;;16.30;99.90;;;;;;5082027;28;20033;-75
2023/08/13 04:34:05;;;;;;;18.23;7.00;;;16.20;99.90;;;;;;5085974;28;20584;-74
2023/08/13 04:36:32;;;;;;;19.55;6.60;;;16.20;99.90;;;;;;5086115;28;20027;-75
2023/08/13 04:38:58;;;;;;;17.70;6.90;;;16.20;99.90;;;;;;5073504;28;20037;-74
2023/08/13 04:41:24;;;;;;;17.48;6.30;;;16.20;99.90;;;;;;5065793;28;20031;-74
2023/08/13 04:43:49;;;;;;;18.52;6.68;;;16.20;99.90;;;;;;5066039;28;20036;-75
2023/08/13 04:46:15;;;;;;;13.63;5.82;;;16.20;99.90;;;;;;5066074;28;20025;-76
2023/08/13 04:48:46;;;;;;;19.05;6.30;;;16.20;99.90;;;;;;5067116;28;20029;-75
2023/08/13 04:51:12;;;;;;;16.30;5.72;;;16.10;99.90;;;;;;5066811;28;20060;-74
2023/08/13 04:53:38;;;;;;;19.40;6.50;;;16.10;99.90;;;;;;5067130;28;20021;-74
2023/08/13 04:56:06;;;;;;;12.55;5.90;;;16.10;99.90;;;;;;5066787;28;20041;-74
2023/08/13 04:58:32;;;;;;;18.88;6.47;;;16.10;99.90;;;;;;5067807;28;20470;-73
2023/08/13 05:00:58;;;;;;;15.98;6.30;;;16.10;99.90;;;;;;5069542;28;20024;-74
2023/08/13 05:03:24;;;;;;;13.50;6.50;;;16.10;99.90;;;;;;5064451;28;20055;-74
2023/08/13 05:05:49;;;;;;;16.05;7.18;;;16.10;99.90;;;;;;5076417;28;20033;-72
2023/08/13 05:08:15;;;;;;;17.55;7.00;;;16.10;99.90;;;;;;5066561;28;20025;-74
2023/08/13 05:10:41;;;;;;;14.65;6.85;;;16.20;99.90;;;;;;5074708;28;20029;-73
2023/08/13 05:13:06;;;;;;;21.25;6.95;;;16.10;99.90;;;;;;5065433;28;20023;-73
2023/08/13 05:15:32;;;;;;;15.07;7.13;;;16.20;99.90;;;;;;5081223;28;20032;-74
2023/08/13 05:17:57;;;;;;;16.42;6.57;;;16.20;99.90;;;;;;5071814;28;20055;-74
2023/08/13 05:20:24;;;;;;;17.80;7.30;;;16.20;99.90;;;;;;5067733;28;20033;-73
2023/08/13 05:22:50;;;;;;;21.67;7.43;;;16.30;99.90;;;;;;5079045;28;20029;-73
2023/08/13 05:25:15;;;;;;;22.23;7.63;;;16.30;99.90;;;;;;5067583;28;20055;-72
2023/08/13 05:27:41;;;;;;;21.48;7.07;;;16.30;99.90;;;;;;5072044;28;20036;-73
2023/08/13 05:30:07;;;;;;;22.35;8.25;;;16.30;99.90;;;;;;5077447;28;20096;-73
2023/08/13 05:32:33;;;;;;;25.67;8.00;;;16.30;99.90;;;;;;5067556;28;20037;-73
2023/08/13 05:34:59;;;;;;;23.40;7.22;;;16.30;99.90;;;;;;5074427;28;20036;-74
2023/08/13 05:37:24;;;;;;;22.80;7.88;;;16.40;99.90;;;;;;5078832;28;20173;-73
2023/08/13 05:39:50;;;;;;;20.98;7.60;;;16.40;99.90;;;;;;5074506;28;20033;-73
2023/08/13 05:42:16;;;;;;;24.33;8.45;;;16.40;99.90;;;;;;5084718;28;20024;-73
2023/08/13 05:44:42;;;;;;;25.08;7.93;;;16.40;99.90;;;;;;5078974;28;20101;-74
2023/08/13 05:47:08;;;;;;;26.25;7.80;;;16.50;99.90;;;;;;5067440;28;20460;-74
2023/08/13 05:49:33;;;;;;;20.58;7.97;;;16.50;99.90;;;;;;5069876;28;20033;-74
2023/08/13 05:51:59;;;;;;;27.58;7.80;;;16.50;99.90;;;;;;5065638;28;20045;-74
2023/08/13 05:54:24;;;;;;;21.10;7.30;;;16.60;99.90;;;;;;5064988;28;20033;-73
2023/08/13 05:56:50;;;;;;;28.50;7.88;;;16.60;99.90;;;;;;5068154;28;20021;-73
2023/08/13 05:59:15;;;;;;;23.98;7.72;;;16.70;99.90;;;;;;5077591;28;20037;-74
2023/08/13 06:01:41;;;;;;;28.17;6.43;;;16.70;99.90;;;;;;5073866;28;20029;-74
2023/08/13 06:04:07;;;;;;;17.85;6.18;;;16.80;99.90;;;;;;5075919;28;20059;-74
2023/08/13 06:06:32;;;;;;;15.57;5.72;;;16.90;99.90;;;;;;5074577;28;20227;-73
2023/08/13 06:08:58;;;;;;;18.77;5.40;;;16.90;99.90;;;;;;5070500;28;20039;-72
2023/08/13 06:11:24;;;;;;;18.85;5.90;;;17.00;99.90;;;;;;5072913;28;20086;-74
2023/08/13 06:13:50;;;;;;;22.83;6.28;;;17.10;99.90;;;;;;5073841;28;20025;-75
2023/08/13 06:16:16;;;;;;;14.55;5.22;;;17.10;99.90;;;;;;5063842;28;20029;-74
2023/08/13 06:18:42;;;;;;;22.17;6.03;;;17.20;99.90;;;;;;5064573;28;20045;-74
2023/08/13 06:21:08;;;;;;;21.67;5.90;;;17.20;99.90;;;;;;5077746;28;20035;-71
2023/08/13 06:23:34;;;;;;;14.45;5.10;;;17.30;99.90;;;;;;5079185;28;20489;-74
2023/08/13 06:25:59;;;;;;;18.27;5.78;;;17.30;99.90;;;;;;5079708;28;20071;-75
2023/08/13 06:28:25;;;;;;;20.02;5.35;;;17.30;99.90;;;;;;5065279;28;20025;-76
2023/08/13 06:30:51;;;;;;;21.23;5.75;;;17.40;99.90;;;;;;5063814;28;20059;-77
2023/08/13 06:33:16;;;;;;;12.13;4.80;;;17.40;99.90;;;;;;5065014;28;20507;-75
2023/08/13 06:35:46;;;;;;;16.40;5.13;;;17.40;99.90;;;;;;5063513;28;20029;-73
2023/08/13 06:38:15;;;;;;;17.27;5.43;;;17.50;99.90;;;;;;5065000;28;20428;-75
2023/08/13 06:40:42;;;;;;;19.30;5.03;;;17.50;99.90;;;;;;5066579;28;20482;-75
2023/08/13 06:43:07;;;;;;;19.45;5.25;;;17.50;99.90;;;;;;5071708;28;20020;-73
2023/08/13 06:45:33;;;;;;;10.55;5.03;;;17.60;99.90;;;;;;5064571;28;20080;-71
2023/08/13 06:47:58;;;;;;;16.35;5.60;;;17.60;99.90;;;;;;5070553;28;20025;-70
2023/08/13 06:50:25;;;;;;;14.50;5.47;;;17.60;99.90;;;;;;5064714;28;20095;-76
2023/08/13 06:52:51;;;;;;;24.63;5.93;;;17.70;99.90;;;;;;5064326;28;20048;-75
2023/08/13 06:55:17;;;;;;;19.67;6.20;;;17.70;99.90;;;;;;5064899;28;20033;-73
2023/08/13 06:57:43;;;;;;;16.23;5.53;;;17.80;99.90;;;;;;5074936;28;20107;-75
2023/08/13 07:00:10;;;;;;;13.70;5.32;;;17.80;99.90;;;;;;5084216;28;20036;-74
2023/08/13 07:02:37;;;;;;;18.30;5.70;;;17.80;99.90;;;;;;5077958;28;20032;-71
2023/08/13 07:05:03;;;;;;;21.20;5.93;;;17.90;99.90;;;;;;5073419;28;20035;-75
2023/08/13 07:07:38;;;;;;;19.13;5.63;;;17.90;99.90;;;;;;5065270;28;20032;-72
2023/08/13 07:10:04;;;;;;;15.00;5.35;;;17.90;99.90;;;;;;5062978;28;20921;-74
2023/08/13 07:12:30;;;;;;;20.55;4.40;;;18.00;99.90;;;;;;5067843;28;20028;-76
2023/08/13 07:14:55;;;;;;;13.68;4.88;;;18.00;99.90;;;;;;5064913;28;20033;-74
2023/08/13 07:17:21;;;;;;;17.40;4.40;;;18.10;99.90;;;;;;5064151;28;20031;-74
2023/08/13 07:19:49;;;;;;;16.92;5.30;;;18.10;99.90;;;;;;5064897;28;20040;-74
2023/08/13 07:22:14;;;;;;;17.98;5.03;;;18.20;99.90;;;;;;5063749;28;20033;-75
2023/08/13 07:24:40;;;;;;;19.63;5.47;;;18.20;99.90;;;;;;5063258;28;20035;-73
2023/08/13 07:27:05;;;;;;;16.75;5.05;;;18.20;99.90;;;;;;5066430;28;20025;-72
2023/08/13 07:29:31;;;;;;;14.27;4.80;;;18.20;99.90;;;;;;5063961;28;20033;-75
2023/08/13 07:31:57;;;;;;;15.55;4.55;;;18.20;99.90;;;;;;5064409;28;20082;-73
2023/08/13 07:34:22;;;;;;;15.85;5.30;;;18.30;99.90;;;;;;5065765;28;20037;-75
2023/08/13 07:36:48;;;;;;;14.88;4.30;;;18.30;99.90;;;;;;5068459;28;20039;-84
2023/08/13 07:39:15;;;;;;;17.83;5.55;;;18.30;99.90;;;;;;5066943;28;20037;-74
2023/08/13 07:41:41;;;;;;;14.48;4.25;;;18.30;99.90;;;;;;5066826;28;20131;-71
2023/08/13 07:44:07;;;;;;;15.93;4.35;;;18.40;99.90;;;;;;5071031;28;20485;-74
2023/08/13 07:46:33;;;;;;;14.02;4.68;;;18.40;99.90;;;;;;5067018;28;20044;-75
2023/08/13 07:48:58;;;;;;;15.10;4.43;;;18.50;99.90;;;;;;5070475;28;20058;-75
2023/08/13 07:51:25;;;;;;;16.05;4.30;;;18.50;99.90;;;;;;5078728;28;20052;-73
2023/08/13 07:53:50;;;;;;;11.10;4.40;;;18.60;99.90;;;;;;5077028;28;20032;-78
2023/08/13 07:56:16;;;;;;;15.80;4.80;;;18.60;99.90;;;;;;5075064;28;20029;-73
2023/08/13 07:58:41;;;;;;;19.92;4.95;;;18.70;99.90;;;;;;5073610;28;20083;-74
2023/08/13 08:01:08;;;;;;;13.63;4.05;;;18.70;99.90;;;;;;5072416;28;20059;-71
2023/08/13 08:03:33;;;;;;;12.52;4.43;;;18.70;99.90;;;;;;5080332;28;20060;-74
2023/08/13 08:05:59;;;;;;;17.58;5.15;;;18.80;99.90;;;;;;5067441;28;20060;-73
2023/08/13 08:08:24;;;;;;;13.50;4.60;;;18.80;99.90;;;;;;5066790;28;20027;-72
2023/08/13 08:10:50;;;;;;;19.88;5.10;;;18.90;99.90;;;;;;5066880;28;20052;-70
2023/08/13 08:13:16;;;;;;;18.45;4.80;;;19.00;99.90;;;;;;5076915;28;20033;-72
2023/08/13 08:15:41;;;;;;;18.55;5.50;;;19.10;99.90;;;;;;5075616;28;20048;-73
2023/08/13 08:18:07;;;;;;;16.98;4.30;;;19.10;99.90;;;;;;5076212;28;20090;-72
2023/08/13 08:20:33;;;;;;;17.77;5.30;;;19.20;99.90;;;;;;5074556;28;20024;-73
2023/08/13 08:22:58;;;;;;;18.60;4.88;;;19.30;99.90;;;;;;5074299;28;20028;-74
2023/08/13 08:25:24;;;;;;;17.50;5.18;;;19.40;99.90;;;;;;5072919;28;21596;-73
2023/08/13 08:27:50;;;;;;;17.08;5.10;;;19.50;99.90;;;;;;5073561;28;20021;-73
2023/08/13 08:30:16;;;;;;;20.67;4.97;;;19.50;99.90;;;;;;5071937;28;20043;-74
2023/08/13 08:32:42;;;;;;;14.13;4.72;;;19.70;99.90;;;;;;5068796;28;20115;-72
2023/08/13 08:35:07;;;;;;;17.73;5.35;;;19.70;99.90;;;;;;5068466;28;20044;-71
2023/08/13 08:37:33;;;;;;;13.45;4.82;;;19.70;99.90;;;;;;5079176;28;20036;-72
2023/08/13 08:39:59;;;;;;;14.52;4.47;;;19.80;99.90;;;;;;5076046;28;20059;-72
2023/08/13 08:42:26;;;;;;;15.23;4.90;;;20.00;99.90;;;;;;5072117;28;20028;-73
2023/08/13 08:44:52;;;;;;;14.13;4.55;;;20.10;99.90;;;;;;5070494;28;20327;-72
2023/08/13 08:47:20;;;;;;;13.57;4.68;;;20.20;99.90;;;;;;5071606;28;20044;-71
2023/08/13 08:49:48;;;;;;;13.52;4.13;;;20.20;99.90;;;;;;5071955;28;20037;-74
2023/08/13 08:52:16;;;;;;;19.33;5.22;;;20.20;99.90;;;;;;5066540;28;20076;-75
2023/08/13 08:54:43;;;;;;;20.58;5.20;;;20.20;99.90;;;;;;5067656;28;20025;-73
2023/08/13 08:57:08;;;;;;;8.50;3.90;;;20.10;99.90;;;;;;5073277;28;20039;-73
2023/08/13 08:59:35;;;;;;;15.15;3.83;;;20.10;99.90;;;;;;5071169;28;20036;-76
2023/08/13 09:02:01;;;;;;;10.48;3.58;;;20.20;99.90;;;;;;5071311;28;20125;-71
2023/08/13 09:04:27;;;;;;;10.23;3.20;;;20.30;99.90;;;;;;5071881;28;20029;-75
2023/08/13 09:07:01;;;;;;;12.70;3.40;;;20.30;99.90;;;;;;5071848;28;20047;-74
2023/08/13 09:09:28;;;;;;;10.50;3.17;;;20.40;99.90;;;;;;5071717;28;20082;-73
2023/08/13 09:11:54;;;;;;;11.77;3.67;;;20.40;99.90;;;;;;5079619;28;20032;-75
2023/08/13 09:14:21;;;;;;;11.55;3.85;;;20.30;99.90;;;;;;5078084;28;20036;-79
2023/08/13 09:16:48;;;;;;;13.77;3.58;;;20.30;99.90;;;;;;5070196;28;20036;-75
2023/08/13 09:19:14;;;;;;;9.85;2.92;;;20.20;99.90;;;;;;5066125;28;20037;-75
2023/08/13 09:21:46;;;;;;;9.65;2.90;;;20.30;99.90;;;;;;5066639;28;20021;-75
2023/08/13 09:24:12;;;;;;;10.10;2.90;;;20.30;99.90;;;;;;5070694;28;20028;-73
2023/08/13 09:26:38;;;;;;;9.90;3.00;;;20.30;99.90;;;;;;5074477;28;20025;-78
2023/08/13 09:29:07;;;;;;;11.75;2.90;;;20.30;99.90;;;;;;5075168;28;20033;-73
2023/08/13 09:31:33;;;;;;;8.15;2.50;;;20.50;99.90;;;;;;5071883;28;20115;-73
2023/08/13 09:34:00;;;;;;;9.27;2.80;;;20.50;99.90;;;;;;5074709;28;20047;-73
2023/08/13 09:36:27;;;;;;;10.02;2.97;;;20.70;99.90;;;;;;5064428;28;20029;-77
2023/08/13 09:38:53;;;;;;;8.25;2.53;;;20.80;99.90;;;;;;5068799;28;20113;-77
2023/08/13 09:41:20;;;;;;;8.73;2.92;;;20.80;99.90;;;;;;5075773;28;20032;-76
2023/08/13 09:43:49;;;;;;;7.53;2.67;;;20.90;99.90;;;;;;5071903;28;20088;-76
2023/08/13 09:46:24;;;;;;;8.23;2.58;;;21.00;99.90;;;;;;5065072;28;20048;-75
2023/08/13 09:48:54;;;;;;;9.25;2.78;;;21.00;99.90;;;;;;5070172;28;20103;-76
2023/08/13 09:51:27;;;;;;;10.20;2.90;;;21.10;99.90;;;;;;5071235;28;20020;-77
2023/08/13 09:53:58;;;;;;;9.13;2.60;;;21.10;99.90;;;;;;5074022;28;20021;-73
2023/08/13 09:56:27;;;;;;;10.05;2.90;;;21.20;99.90;;;;;;5074860;28;20044;-75
2023/08/13 09:58:53;;;;;;;8.20;2.80;;;21.20;99.90;;;;;;5070280;28;20032;-76
2023/08/13 10:01:19;;;;;;;8.95;3.00;;;21.30;99.90;;;;;;5072664;28;20027;-75
2023/08/13 10:03:45;;;;;;;5.13;2.40;;;21.30;99.90;;;;;;5071354;28;20031;-79
2023/08/13 10:06:11;;;;;;;7.43;2.72;;;21.40;99.90;;;;;;5064282;28;20029;-75
2023/08/13 10:08:38;;;;;;;9.23;2.40;;;21.60;99.90;;;;;;5083441;28;20045;-72
2023/08/13 10:11:05;;;;;;;10.07;2.10;;;21.60;99.90;;;;;;5075249;28;20120;-74
2023/08/13 10:13:30;;;;;;;7.10;2.42;;;21.60;99.90;;;;;;5062935;28;20036;-71
2023/08/13 10:15:56;;;;;;;7.43;2.20;;;21.70;99.90;;;;;;5069643;28;20021;-72
2023/08/13 10:18:23;;;;;;;5.50;2.20;;;21.80;99.90;;;;;;5063367;28;20482;-72
2023/08/13 10:20:49;;;;;;;8.45;2.70;;;21.80;99.90;;;;;;5081284;28;20531;-79
2023/08/13 10:23:17;;;;;;;10.00;2.60;;;21.80;99.90;;;;;;5080562;28;20025;-74
2023/08/13 10:25:44;;;;;;;5.78;1.85;;;21.70;99.90;;;;;;5065078;28;20033;-74
2023/08/13 10:28:27;;;;;;;4.57;1.85;;;21.70;99.90;;;;;;5063292;28;20040;-74
2023/08/13 10:31:29;;;;;;;10.35;1.98;;;21.70;99.90;;;;;;5064958;28;20029;-78
2023/08/13 10:34:10;;;;;;;5.90;2.15;;;21.80;99.90;;;;;;5064325;28;20420;-78
2023/08/13 10:36:50;;;;;;;7.22;2.33;;;21.90;99.90;;;;;;5068015;28;20036;-75
2023/08/13 10:39:37;;;;;;;6.95;2.03;;;21.90;99.90;;;;;;5063314;28;20409;-73
2023/08/13 10:42:24;;;;;;;6.53;2.20;;;22.00;99.90;;;;;;5064552;28;20467;-73
2023/08/13 10:44:50;;;;;;;6.07;2.03;;;22.20;99.90;;;;;;5070673;28;20040;-74
2023/08/13 10:47:16;;;;;;;7.20;2.10;;;22.30;99.90;;;;;;5063172;28;20032;-74
2023/08/13 10:49:42;;;;;;;6.72;2.00;;;22.40;99.90;;;;;;5064030;28;20037;-74
2023/08/13 10:52:08;;;;;;;5.68;2.20;;;22.50;99.90;;;;;;5064336;28;20053;-73
2023/08/13 10:54:33;;;;;;;4.93;1.65;;;22.60;99.90;;;;;;5070404;28;20028;-74
2023/08/13 10:57:00;;;;;;;2.95;1.83;;;22.60;99.90;;;;;;5083361;28;20031;-76
2023/08/13 10:59:37;;;;;;;4.97;1.88;;;22.50;99.90;;;;;;5084270;28;20036;-72
2023/08/13 11:02:19;;;;;;;5.55;1.83;;;22.50;99.90;;;;;;5063356;28;20033;-73
2023/08/13 11:04:46;;;;;;;5.00;1.65;;;22.50;99.90;;;;;;5062781;28;20028;-74
2023/08/13 11:07:13;;;;;;;3.55;1.50;;;22.50;99.90;;;;;;5062166;28;20021;-74
2023/08/13 11:09:42;;;;;;;4.45;1.67;;;22.70;99.90;;;;;;5071109;28;20020;-71
2023/08/13 11:12:09;;;;;;;5.55;1.60;;;22.90;99.90;;;;;;5077532;28;20025;-72
2023/08/13 11:14:40;;;;;;;4.75;1.33;;;23.10;99.90;;;;;;5067566;28;20181;-71
2023/08/13 11:17:08;;;;;;;6.10;1.50;;;23.20;99.90;;;;;;5072363;28;20029;-74
2023/08/13 11:19:34;;;;;;;4.35;1.33;;;23.20;99.90;;;;;;5081382;28;20104;-76
2023/08/13 11:22:01;;;;;;;4.35;1.58;;;23.30;99.90;;;;;;5077337;28;20051;-73
2023/08/13 11:24:29;;;;;;;4.93;1.55;;;23.50;99.90;;;;;;5079577;28;20025;-74
2023/08/13 11:26:54;;;;;;;2.78;1.27;;;23.60;99.90;;;;;;5063207;28;20056;-71
2023/08/13 11:29:21;;;;;;;7.40;1.40;;;23.60;99.90;;;;;;5083439;28;20024;-75
2023/08/13 11:31:48;;;;;;;6.57;1.33;;;23.50;99.90;;;;;;5082482;28;20020;-77
2023/08/13 11:34:18;;;;;;;3.33;1.30;;;23.50;99.90;;;;;;5069436;28;20386;-74
2023/08/13 11:36:45;;;;;;;5.15;1.10;;;23.70;99.90;;;;;;5079328;28;20025;-72
2023/08/13 11:39:11;;;;;;;5.07;1.30;;;23.90;99.90;;;;;;5067660;28;20041;-77
2023/08/13 11:41:37;;;;;;;4.30;1.30;;;24.10;99.90;;;;;;5071796;28;20032;-73
2023/08/13 11:44:04;;;;;;;3.78;1.13;;;24.20;99.90;;;;;;5069101;28;20032;-74
2023/08/13 11:46:56;;;;;;;6.13;1.38;;;24.20;99.90;;;;;;5074428;28;20021;-75
2023/08/13 11:49:23;;;;;;;3.80;1.00;;;24.10;99.90;;;;;;5069436;28;20080;-74
2023/08/13 11:51:49;;;;;;;4.80;1.27;;;23.90;99.90;;;;;;5071795;28;20080;-74
2023/08/13 11:54:18;;;;;;;4.53;1.30;;;23.90;99.90;;;;;;5069228;28;20025;-73
2023/08/13 11:56:43;;;;;;;4.85;1.67;;;23.70;99.90;;;;;;5063940;28;20033;-75
2023/08/13 11:59:09;;;;;;;3.15;1.90;;;23.50;99.90;;;;;;5066499;28;20084;-73
2023/08/13 12:01:38;;;;;;;6.25;2.55;;;23.70;99.90;;;;;;5062422;28;20025;-77
2023/08/13 12:04:05;;;;;;;5.97;2.30;;;23.70;99.90;;;;;;5063332;28;20129;-75
2023/08/13 12:06:34;;;;;;;2.90;1.70;;;23.70;99.90;;;;;;5063642;28;20385;-76
2023/08/13 12:09:00;;;;;;;6.20;1.50;;;23.60;99.90;;;;;;5063850;28;20025;-73
2023/08/13 12:11:26;;;;;;;3.15;1.30;;;23.50;99.90;;;;;;5063484;28;20075;-76
2023/08/13 12:13:51;;;;;;;4.47;1.58;;;23.70;99.90;;;;;;5064331;28;20021;-77
2023/08/13 12:16:17;;;;;;;3.30;1.10;;;23.80;99.90;;;;;;5073792;28;20025;-74
2023/08/13 12:18:43;;;;;;;3.88;1.40;;;23.90;99.90;;;;;;5063387;28;20048;-75
2023/08/13 12:21:09;;;;;;;4.30;1.30;;;24.00;99.90;;;;;;5066151;28;20028;-73
2023/08/13 12:23:35;;;;;;;2.78;1.05;;;24.10;99.90;;;;;;5067465;28;20025;-72
2023/08/13 12:26:01;;;;;;;2.65;1.00;;;24.10;99.90;;;;;;5066802;28;20072;-74
2023/08/13 12:28:27;;;;;;;4.53;1.13;;;24.30;99.90;;;;;;5065489;28;20039;-75
2023/08/13 12:30:53;;;;;;;3.17;1.10;;;24.50;99.90;;;;;;5074629;28;20024;-75
2023/08/13 12:33:19;;;;;;;1.95;0.95;;;24.70;99.90;;;;;;5066386;28;20132;-74
2023/08/13 12:35:45;;;;;;;2.35;1.00;;;24.80;99.90;;;;;;5072518;28;20025;-75
2023/08/13 12:38:10;;;;;;;2.65;0.98;;;24.80;99.90;;;;;;5079342;28;20056;-71